Austin, Utah
Current Conditions -  °F | °C
As of 1:52 AM on Thursday 23 Oct 2014 (Local Time) from KMLF Reporting Station
Clear Clear  
Wind Chill: 38°   Ceiling: Unl
Heat Index: 42°   Visibility: 10mi
Dew Point: 28°   Wind: 6mph
Humidity: 58%   Direction: 180°S
Pressure: 30.19"   Gusts: NA
Location:  38.6125°N, 112.081°W
Report Text: KMLF 230752Z AUTO 18005KT 10SM CLR 06/M02 A3019 RMK AO2 SLP192 T00561022 TSNO
Loading
Personal Weather Stations






























Interactive Weather Map
Tropical Storm Tracking
New forecast layout! Learn more

10-Day Weather Forecast

Advertisements
Track Severe Weather on mobile